createdAt,value
2023-03-04T00:00:46.557Z,52379.97
2023-03-04T00:03:19.503Z,52387.21
2023-03-04T00:05:52.581Z,52372.74
2023-03-04T00:08:26.009Z,52392.03
2023-03-04T00:10:58.814Z,52403.28
2023-03-04T00:13:33.161Z,52395.65
2023-03-04T00:16:06.369Z,52379.57
2023-03-04T00:18:39.125Z,52402.48
2023-03-04T00:21:11.985Z,52407.70
2023-03-04T00:23:44.729Z,52376.76
2023-03-04T00:26:17.439Z,52401.68
2023-03-04T00:28:50.194Z,52386.40
2023-03-04T00:31:23.036Z,52392.43
2023-03-04T00:33:55.937Z,52398.86
2023-03-04T00:36:28.638Z,52391.63
2023-03-04T00:39:01.830Z,52392.02
2023-03-04T00:41:34.988Z,52418.55
2023-03-04T00:44:09.708Z,52389.21
2023-03-04T00:46:42.599Z,52389.21
2023-03-04T00:49:15.399Z,52386.40
2023-03-04T00:51:48.096Z,52403.28
2023-03-04T00:54:21.943Z,52394.44
2023-03-04T00:56:55.325Z,52373.54
2023-03-04T00:59:28.160Z,52402.48
2023-03-04T01:02:01.562Z,52392.03
2023-03-04T01:04:38.963Z,52380.37
2023-03-04T01:07:11.880Z,52387.61
2023-03-04T01:09:50.023Z,52386.00
2023-03-04T01:12:22.794Z,52398.86
2023-03-04T01:14:56.158Z,52394.84
2023-03-04T01:17:28.854Z,52365.10
2023-03-04T01:20:01.998Z,52398.46
2023-03-04T01:22:35.204Z,52397.25
2023-03-04T01:25:09.174Z,52388.01
2023-03-04T01:27:42.666Z,52391.23
2023-03-04T01:30:16.549Z,52381.98
2023-03-04T01:32:49.516Z,52396.85
2023-03-04T01:35:26.388Z,52396.05
2023-03-04T01:37:59.420Z,52401.67
2023-03-04T01:40:32.361Z,52399.26
2023-03-04T01:43:05.447Z,52392.43
2023-03-04T01:45:40.276Z,52387.61
2023-03-04T01:48:14.712Z,52381.58
2023-03-04T01:50:47.897Z,52394.44
2023-03-04T01:53:23.936Z,52390.82
2023-03-04T01:55:58.112Z,52390.02
2023-03-04T01:58:35.613Z,52400.06
2023-03-04T02:01:09.038Z,52388.01
2023-03-04T02:03:41.756Z,52389.21
2023-03-04T02:06:16.308Z,52391.23
2023-03-04T02:08:49.451Z,52385.20
2023-03-04T02:11:23.960Z,52376.76
2023-03-04T02:13:57.424Z,52404.09
2023-03-04T02:16:30.199Z,52393.64
2023-03-04T02:19:04.795Z,52382.38
2023-03-04T02:21:38.015Z,52383.59
2023-03-04T02:24:15.500Z,52405.70
2023-03-04T02:26:48.450Z,52400.47
2023-03-04T02:29:23.789Z,52395.24
2023-03-04T02:31:57.147Z,52382.38
2023-03-04T02:34:31.742Z,52403.28
2023-03-04T02:37:04.555Z,52404.89
2023-03-04T02:39:41.163Z,52410.91
2023-03-04T02:42:14.318Z,52393.64
2023-03-04T02:44:50.623Z,52397.65
2023-03-04T02:47:25.268Z,52396.85
2023-03-04T02:49:58.355Z,52408.51
2023-03-04T02:52:36.796Z,52397.66
2023-03-04T02:55:11.255Z,52410.52
2023-03-04T02:57:48.172Z,52406.09
2023-03-04T03:00:21.598Z,52410.11
2023-03-04T03:02:57.316Z,52401.68
2023-03-04T03:05:31.335Z,52392.43
2023-03-04T03:08:04.089Z,52407.30
2023-03-04T03:10:37.592Z,52404.49
2023-03-04T03:13:12.387Z,52404.89
2023-03-04T03:15:53.014Z,52416.54
2023-03-04T03:18:31.178Z,52420.56
2023-03-04T03:21:04.480Z,52399.66
2023-03-04T03:23:37.681Z,52405.29
2023-03-04T03:26:12.801Z,52418.15
2023-03-04T03:28:45.851Z,52426.99
2023-03-04T03:31:18.857Z,52424.98
2023-03-04T03:33:55.802Z,52402.07
2023-03-04T03:36:28.736Z,52426.19
2023-03-04T03:39:01.822Z,52418.55
2023-03-04T03:41:34.849Z,52418.55
2023-03-04T03:44:08.144Z,52410.52
2023-03-04T03:46:40.990Z,52415.74
2023-03-04T03:49:13.944Z,52430.61
2023-03-04T03:51:47.521Z,52433.82
2023-03-04T03:54:20.219Z,52411.32
2023-03-04T03:56:56.734Z,52420.16
2023-03-04T03:59:29.611Z,52431.01
2023-03-04T04:02:02.481Z,52406.09
2023-03-04T04:04:35.729Z,52418.15
2023-03-04T04:07:08.643Z,52409.71
2023-03-04T04:09:42.008Z,52402.88
2023-03-04T04:12:16.951Z,52410.11
2023-03-04T04:14:54.067Z,52420.56
2023-03-04T04:17:26.704Z,52428.20
2023-03-04T04:19:59.910Z,52418.55
2023-03-04T04:22:32.818Z,52430.21
2023-03-04T04:25:09.781Z,52418.55
2023-03-04T04:27:42.749Z,52431.81
2023-03-04T04:30:16.861Z,52418.55
2023-03-04T04:32:51.186Z,52425.79
2023-03-04T04:35:24.141Z,52435.83
2023-03-04T04:37:57.224Z,52424.18
2023-03-04T04:40:30.953Z,52433.42
2023-03-04T04:43:04.975Z,52419.76
2023-03-04T04:45:39.452Z,52431.81
2023-03-04T04:48:12.995Z,52422.98
2023-03-04T04:50:46.822Z,52434.23
2023-03-04T04:53:20.358Z,52429.00
2023-03-04T04:55:58.046Z,52435.03
2023-03-04T04:58:31.606Z,52437.04
2023-03-04T05:01:05.202Z,52437.44
2023-03-04T05:03:38.378Z,52434.63
2023-03-04T05:06:12.154Z,52414.94
2023-03-04T05:08:46.316Z,52425.39
2023-03-04T05:11:19.747Z,52441.06
2023-03-04T05:13:55.645Z,52421.77
2023-03-04T05:16:29.408Z,52433.43
2023-03-04T05:19:02.256Z,52438.65
2023-03-04T05:21:35.046Z,52424.18
2023-03-04T05:24:09.228Z,52430.61
2023-03-04T05:26:43.615Z,52414.13
2023-03-04T05:29:16.792Z,52416.95
2023-03-04T05:31:49.586Z,52431.81
2023-03-04T05:34:23.205Z,52425.79
2023-03-04T05:36:56.289Z,52411.32
2023-03-04T05:39:29.347Z,52398.46
2023-03-04T05:42:02.249Z,52398.46
2023-03-04T05:44:35.128Z,52406.49
2023-03-04T05:47:08.298Z,52398.86
2023-03-04T05:49:43.098Z,52408.51
2023-03-04T05:52:16.424Z,52409.31
2023-03-04T05:54:49.308Z,52402.48
2023-03-04T05:57:22.340Z,52406.09
2023-03-04T05:59:55.133Z,52412.52
2023-03-04T06:02:28.030Z,52399.27
2023-03-04T06:05:00.722Z,52408.91
2023-03-04T06:07:33.923Z,52395.24
2023-03-04T06:10:07.509Z,52381.98
2023-03-04T06:12:40.339Z,52394.44
2023-03-04T06:15:15.488Z,52395.24
2023-03-04T06:17:50.763Z,52389.21
2023-03-04T06:20:26.406Z,52397.66
2023-03-04T06:23:00.920Z,52391.63
2023-03-04T06:25:34.999Z,52381.18
2023-03-04T06:28:10.309Z,52388.41
2023-03-04T06:30:43.057Z,52391.23
2023-03-04T06:33:18.147Z,52388.01
2023-03-04T06:35:51.060Z,52405.70
2023-03-04T06:38:23.716Z,52383.19
2023-03-04T06:40:57.571Z,52379.17
2023-03-04T06:43:31.000Z,52381.98
2023-03-04T06:46:05.738Z,52394.84
2023-03-04T06:48:38.903Z,52390.02
2023-03-04T06:51:12.930Z,52388.82
2023-03-04T06:53:46.359Z,52376.76
2023-03-04T06:56:20.121Z,52361.48
2023-03-04T06:58:53.440Z,52378.37
2023-03-04T07:01:27.558Z,52369.93
2023-03-04T07:04:03.123Z,52379.57
2023-03-04T07:06:36.311Z,52353.05
2023-03-04T07:09:09.269Z,52384.79
2023-03-04T07:11:42.441Z,52368.32
2023-03-04T07:14:15.386Z,52377.56
2023-03-04T07:16:51.776Z,52365.91
2023-03-04T07:19:25.367Z,52387.21
2023-03-04T07:22:01.539Z,52368.72
2023-03-04T07:24:35.055Z,52361.49
2023-03-04T07:27:08.967Z,52367.51
2023-03-04T07:29:42.646Z,52363.09
2023-03-04T07:32:15.693Z,52357.87
2023-03-04T07:34:49.022Z,52353.85
2023-03-04T07:37:22.420Z,52360.28
2023-03-04T07:39:56.989Z,52341.79
2023-03-04T07:42:30.245Z,52356.66
2023-03-04T07:45:13.666Z,52336.16
2023-03-04T07:47:48.294Z,52357.47
2023-03-04T07:50:21.144Z,52331.75
2023-03-04T07:52:54.519Z,52333.35
2023-03-04T07:55:28.289Z,52346.62
2023-03-04T07:58:01.776Z,52331.75
2023-03-04T08:00:35.405Z,52353.05
2023-03-04T08:03:09.078Z,52334.96
2023-03-04T08:05:43.866Z,52333.76
2023-03-04T08:08:17.421Z,52332.15
2023-03-04T08:10:50.556Z,52347.02
2023-03-04T08:13:25.856Z,52312.86
2023-03-04T08:16:02.069Z,52310.45
2023-03-04T08:18:36.316Z,52334.56
2023-03-04T08:21:12.642Z,52328.13
2023-03-04T08:23:47.524Z,52330.95
2023-03-04T08:26:21.715Z,52312.05
2023-03-04T08:28:54.567Z,52317.68
2023-03-04T08:31:30.502Z,52328.93
2023-03-04T08:34:05.479Z,52322.51
2023-03-04T08:36:38.613Z,52313.26
2023-03-04T08:39:11.477Z,52298.39
2023-03-04T08:41:44.634Z,52330.54
2023-03-04T08:44:17.589Z,52285.13
2023-03-04T08:46:50.790Z,52306.43
2023-03-04T08:49:24.878Z,52285.13
2023-03-04T08:51:58.247Z,52299.20
2023-03-04T08:54:31.232Z,52287.95
2023-03-04T08:57:08.082Z,52290.36
2023-03-04T08:59:40.884Z,52284.33
2023-03-04T09:02:14.608Z,52270.66
2023-03-04T09:04:47.582Z,52265.44
2023-03-04T09:07:22.181Z,52281.51
2023-03-04T09:09:54.972Z,52276.69
2023-03-04T09:12:28.560Z,52263.43
2023-03-04T09:15:11.135Z,52248.56
2023-03-04T09:17:45.784Z,52259.01
2023-03-04T09:20:20.064Z,52256.20
2023-03-04T09:22:54.243Z,52261.82
2023-03-04T09:25:27.217Z,52251.77
2023-03-04T09:28:00.408Z,52258.61
2023-03-04T09:30:33.859Z,52248.16
2023-03-04T09:33:07.148Z,52250.16
2023-03-04T09:35:41.807Z,52255.39
2023-03-04T09:38:14.941Z,52259.41
2023-03-04T09:40:49.836Z,52259.41
2023-03-04T09:43:25.288Z,52249.77
2023-03-04T09:45:59.738Z,52269.46
2023-03-04T09:48:35.451Z,52270.26
2023-03-04T09:51:19.724Z,52241.32
2023-03-04T09:53:59.964Z,52246.15
2023-03-04T09:56:32.790Z,52248.16
2023-03-04T09:59:15.559Z,52254.59
2023-03-04T10:01:51.610Z,52246.55
2023-03-04T10:04:30.673Z,52246.95
2023-03-04T10:07:03.912Z,52250.17
2023-03-04T10:09:44.670Z,52248.56
2023-03-04T10:12:20.217Z,52239.72
2023-03-04T10:14:58.505Z,52254.99
2023-03-04T10:17:35.007Z,52255.39
2023-03-04T10:20:17.205Z,52242.54
2023-03-04T10:22:51.049Z,52241.32
2023-03-04T10:25:25.554Z,52231.28
2023-03-04T10:28:00.120Z,52240.52
2023-03-04T10:30:41.122Z,52240.92
2023-03-04T10:33:18.282Z,52243.34
2023-03-04T10:35:53.912Z,52233.69
2023-03-04T10:38:35.998Z,52241.73
2023-03-04T10:41:16.204Z,52214.00
2023-03-04T10:44:01.904Z,52244.54
2023-03-04T10:46:35.018Z,52220.03
2023-03-04T10:49:07.825Z,52238.12
2023-03-04T10:51:46.038Z,52229.68
2023-03-04T10:54:25.669Z,52205.96
2023-03-04T10:57:01.499Z,52210.38
2023-03-04T10:59:39.239Z,52220.43
2023-03-04T11:02:27.106Z,52209.18
2023-03-04T11:05:08.434Z,52226.46
2023-03-04T11:07:54.596Z,52234.89
2023-03-04T11:10:30.346Z,52223.24
2023-03-04T11:13:15.217Z,52216.01
2023-03-04T11:15:57.909Z,52223.64
2023-03-04T11:18:37.437Z,52226.86
2023-03-04T11:21:10.469Z,52232.48
2023-03-04T11:23:46.670Z,52225.65
2023-03-04T11:26:20.992Z,52228.06
2023-03-04T11:28:57.978Z,52228.47
2023-03-04T11:31:33.942Z,52216.01
2023-03-04T11:34:11.168Z,52216.81
2023-03-04T11:36:51.129Z,52220.43
2023-03-04T11:39:25.936Z,52236.91
2023-03-04T11:42:06.304Z,52224.05
2023-03-04T11:44:39.795Z,52230.48
2023-03-04T11:47:35.976Z,52239.32
2023-03-04T11:50:39.395Z,52237.31
2023-03-04T11:53:29.839Z,52232.49
2023-03-04T11:56:11.453Z,52249.37
2023-03-04T11:58:58.800Z,52242.13
2023-03-04T12:01:35.550Z,52225.25
2023-03-04T12:04:14.605Z,52221.24
2023-03-04T12:06:53.891Z,52228.87
2023-03-04T12:09:34.338Z,52211.19
2023-03-04T12:12:14.132Z,52223.24
2023-03-04T12:14:49.430Z,52226.05
2023-03-04T12:17:50.326Z,52218.02
2023-03-04T12:20:31.869Z,52222.44
2023-03-04T12:23:12.618Z,52201.95
2023-03-04T12:25:47.132Z,52211.99
2023-03-04T12:28:29.012Z,52193.91
2023-03-04T12:31:12.659Z,52201.14
2023-03-04T12:33:51.772Z,52197.52
2023-03-04T12:36:28.331Z,52194.31
2023-03-04T12:39:05.152Z,52199.54
2023-03-04T12:41:45.492Z,52189.09
2023-03-04T12:44:19.404Z,52199.13
2023-03-04T12:47:12.189Z,52198.73
2023-03-04T12:49:55.242Z,52204.36
2023-03-04T12:52:34.860Z,52204.35
2023-03-04T12:55:12.007Z,52205.16
2023-03-04T12:57:46.033Z,52218.82
2023-03-04T13:00:24.177Z,52198.33
2023-03-04T13:03:04.254Z,52219.23
2023-03-04T13:05:46.067Z,52229.68
2023-03-04T13:08:26.591Z,52217.21
2023-03-04T13:11:25.990Z,52190.29
2023-03-04T13:14:06.499Z,52185.07
2023-03-04T13:16:43.839Z,52183.05
2023-03-04T13:19:51.225Z,52176.23
2023-03-04T13:22:48.575Z,52175.82
2023-03-04T13:25:39.199Z,52170.20
2023-03-04T13:28:29.225Z,52166.18
2023-03-04T13:31:26.773Z,52169.80
2023-03-04T13:34:06.749Z,52159.75
2023-03-04T13:37:04.777Z,52152.12
2023-03-04T13:39:39.982Z,52174.62
2023-03-04T13:42:42.368Z,52157.34
2023-03-04T13:45:36.266Z,52162.96
2023-03-04T13:48:22.849Z,52183.05
2023-03-04T13:50:55.773Z,52180.25
2023-03-04T13:53:39.288Z,52181.85
2023-03-04T13:56:31.548Z,52184.26
2023-03-04T13:59:30.244Z,52199.54
2023-03-04T14:02:04.645Z,52176.63
2023-03-04T14:04:40.065Z,52183.46
2023-03-04T14:07:25.735Z,52197.13
2023-03-04T14:10:06.112Z,52192.30
2023-03-04T14:12:43.092Z,52194.71
2023-03-04T14:15:24.370Z,52191.10
2023-03-04T14:17:58.654Z,52196.72
2023-03-04T14:20:36.476Z,52191.50
2023-03-04T14:23:29.794Z,52194.71
2023-03-04T14:26:11.077Z,52203.15
2023-03-04T14:28:48.641Z,52191.90
2023-03-04T14:31:23.650Z,52184.66
2023-03-04T14:34:00.081Z,52197.12
2023-03-04T14:36:35.143Z,52196.32
2023-03-04T14:39:08.896Z,52202.35
2023-03-04T14:41:45.731Z,52184.27
2023-03-04T14:44:22.206Z,52205.56
2023-03-04T14:47:07.577Z,52208.38
2023-03-04T14:49:41.821Z,52200.74
2023-03-04T14:52:38.074Z,52209.58
2023-03-04T14:55:23.185Z,52219.23
2023-03-04T14:58:07.403Z,52226.46
2023-03-04T15:00:41.712Z,52227.66
2023-03-04T15:03:22.940Z,52225.25
2023-03-04T15:05:55.979Z,52241.33
2023-03-04T15:08:29.464Z,52238.91
2023-03-04T15:11:04.185Z,52248.96
2023-03-04T15:13:44.181Z,52234.09
2023-03-04T15:16:18.431Z,52244.14
2023-03-04T15:19:02.403Z,52252.58
2023-03-04T15:21:40.441Z,52253.79
2023-03-04T15:24:15.711Z,52250.97
2023-03-04T15:26:50.771Z,52253.78
2023-03-04T15:29:23.736Z,52256.20
2023-03-04T15:31:57.331Z,52263.43
2023-03-04T15:34:31.765Z,52260.62
2023-03-04T15:37:04.664Z,52262.23
2023-03-04T15:39:38.416Z,52265.84
2023-03-04T15:42:14.782Z,52258.61
2023-03-04T15:44:48.846Z,52271.87
2023-03-04T15:47:22.444Z,52274.68
2023-03-04T15:49:58.644Z,52287.95
2023-03-04T15:52:31.408Z,52281.52
2023-03-04T15:55:04.523Z,52271.06
2023-03-04T15:57:38.627Z,52278.70
2023-03-04T16:00:15.305Z,52269.05
2023-03-04T16:02:48.995Z,52284.33
2023-03-04T16:05:22.799Z,52291.96
2023-03-04T16:07:55.446Z,52270.66
2023-03-04T16:10:29.964Z,52284.33
2023-03-04T16:13:03.163Z,52283.13
2023-03-04T16:15:43.568Z,52297.59
2023-03-04T16:18:16.953Z,52279.51
2023-03-04T16:20:50.769Z,52275.89
2023-03-04T16:23:25.526Z,52294.77
2023-03-04T16:25:58.955Z,52304.82
2023-03-04T16:28:32.382Z,52295.18
2023-03-04T16:31:06.025Z,52290.76
2023-03-04T16:33:39.160Z,52299.60
2023-03-04T16:36:17.730Z,52300.00
2023-03-04T16:38:51.516Z,52295.18
2023-03-04T16:41:26.690Z,52294.77
2023-03-04T16:44:01.173Z,52287.14
2023-03-04T16:46:38.135Z,52299.60
2023-03-04T16:49:10.996Z,52311.25
2023-03-04T16:51:47.095Z,52300.00
2023-03-04T16:54:20.899Z,52291.55
2023-03-04T16:56:54.212Z,52311.65
2023-03-04T16:59:27.172Z,52283.93
2023-03-04T17:02:00.369Z,52300.40
2023-03-04T17:04:33.430Z,52316.88
2023-03-04T17:07:06.849Z,52310.85
2023-03-04T17:09:40.421Z,52311.65
2023-03-04T17:12:14.879Z,52309.64
2023-03-04T17:14:49.502Z,52309.24
2023-03-04T17:17:22.524Z,52309.24
2023-03-04T17:19:57.084Z,52310.05
2023-03-04T17:22:30.837Z,52310.85
2023-03-04T17:25:04.520Z,52319.29
2023-03-04T17:27:38.190Z,52319.29
2023-03-04T17:30:14.237Z,52301.21
2023-03-04T17:32:47.555Z,52323.31
2023-03-04T17:35:20.715Z,52306.03
2023-03-04T17:37:54.284Z,52302.41
2023-03-04T17:40:30.892Z,52312.46
2023-03-04T17:43:03.813Z,52317.68
2023-03-04T17:45:38.217Z,52317.68
2023-03-04T17:48:15.479Z,52316.48
2023-03-04T17:50:52.857Z,52327.73
2023-03-04T17:53:26.149Z,52318.08
2023-03-04T17:56:03.195Z,52315.27
2023-03-04T17:58:39.016Z,52314.07
2023-03-04T18:01:19.944Z,52322.91
2023-03-04T18:03:54.504Z,52329.74
2023-03-04T18:06:28.068Z,52318.09
2023-03-04T18:09:03.346Z,52320.90
2023-03-04T18:11:37.769Z,52340.18
2023-03-04T18:14:13.077Z,52320.09
2023-03-04T18:16:51.517Z,52310.04
2023-03-04T18:19:24.690Z,52301.21
2023-03-04T18:22:00.048Z,52318.49
2023-03-04T18:24:33.780Z,52322.10
2023-03-04T18:27:07.749Z,52320.49
2023-03-04T18:29:42.806Z,52335.36
2023-03-04T18:32:15.807Z,52331.35
2023-03-04T18:34:49.360Z,52329.34
2023-03-04T18:37:22.112Z,52328.53
2023-03-04T18:39:56.115Z,52324.11
2023-03-04T18:42:28.934Z,52319.29
2023-03-04T18:45:02.946Z,52330.54
2023-03-04T18:47:38.115Z,52321.70
2023-03-04T18:50:13.031Z,52325.73
2023-03-04T18:52:46.564Z,52326.52
2023-03-04T18:55:19.614Z,52330.54
2023-03-04T18:57:54.127Z,52332.95
2023-03-04T19:00:27.422Z,52312.86
2023-03-04T19:03:02.406Z,52328.53
2023-03-04T19:05:36.807Z,52336.97
2023-03-04T19:08:10.876Z,52320.90
2023-03-04T19:10:43.953Z,52328.13
2023-03-04T19:13:22.967Z,52328.13
2023-03-04T19:15:56.124Z,52320.50
2023-03-04T19:18:29.374Z,52336.98
2023-03-04T19:21:05.424Z,52332.55
2023-03-04T19:23:40.314Z,52340.19
2023-03-04T19:26:17.522Z,52332.15
2023-03-04T19:28:50.473Z,52339.38
2023-03-04T19:31:23.254Z,52337.77
2023-03-04T19:33:57.651Z,52327.33
2023-03-04T19:36:31.588Z,52338.18
2023-03-04T19:39:04.805Z,52336.97
2023-03-04T19:41:37.873Z,52328.53
2023-03-04T19:44:11.870Z,52338.18
2023-03-04T19:46:45.555Z,52338.98
2023-03-04T19:49:19.324Z,52351.04
2023-03-04T19:51:52.675Z,52334.96
2023-03-04T19:54:25.603Z,52355.86
2023-03-04T19:56:59.117Z,52349.03
2023-03-04T19:59:31.956Z,52344.61
2023-03-04T20:02:06.003Z,52358.67
2023-03-04T20:04:39.156Z,52360.68
2023-03-04T20:07:14.348Z,52367.52
2023-03-04T20:09:49.768Z,52355.05
2023-03-04T20:12:22.423Z,52355.86
2023-03-04T20:14:57.771Z,52351.44
2023-03-04T20:17:30.726Z,52350.64
2023-03-04T20:20:12.623Z,52365.91
2023-03-04T20:22:45.459Z,52365.91
2023-03-04T20:25:18.614Z,52343.40
2023-03-04T20:27:52.128Z,52354.65
2023-03-04T20:30:25.113Z,52356.66
2023-03-04T20:32:58.371Z,52352.24
2023-03-04T20:35:31.834Z,52367.92
2023-03-04T20:38:04.929Z,52362.29
2023-03-04T20:40:39.015Z,52370.73
2023-03-04T20:43:11.998Z,52357.47
2023-03-04T20:45:46.150Z,52375.96
2023-03-04T20:48:19.694Z,52346.62
2023-03-04T20:50:52.691Z,52374.35
2023-03-04T20:53:26.429Z,52354.65
2023-03-04T20:56:03.589Z,52372.34
2023-03-04T20:58:37.841Z,52374.35
2023-03-04T21:01:10.888Z,52355.05
2023-03-04T21:03:44.332Z,52355.86
2023-03-04T21:06:17.466Z,52367.91
2023-03-04T21:08:51.639Z,52347.42
2023-03-04T21:11:26.563Z,52373.14
2023-03-04T21:13:59.726Z,52345.81
2023-03-04T21:16:33.009Z,52349.84
2023-03-04T21:19:06.389Z,52367.52
2023-03-04T21:21:44.391Z,52359.88
2023-03-04T21:24:19.638Z,52370.33
2023-03-04T21:26:52.615Z,52370.73
2023-03-04T21:29:27.504Z,52357.47
2023-03-04T21:32:13.287Z,52338.98
2023-03-04T21:34:55.711Z,52361.49
2023-03-04T21:37:29.086Z,52347.42
2023-03-04T21:40:02.850Z,52369.12
2023-03-04T21:42:35.920Z,52366.71
2023-03-04T21:45:11.513Z,52377.16
2023-03-04T21:47:45.024Z,52378.37
2023-03-04T21:50:18.368Z,52360.68
2023-03-04T21:52:51.890Z,52364.70
2023-03-04T21:55:25.204Z,52369.12
2023-03-04T21:57:57.926Z,52347.82
2023-03-04T22:00:30.897Z,52377.56
2023-03-04T22:03:07.319Z,52358.27
2023-03-04T22:05:45.204Z,52369.52
2023-03-04T22:08:18.424Z,52364.70
2023-03-04T22:10:52.244Z,52361.49
2023-03-04T22:13:25.483Z,52375.95
2023-03-04T22:15:59.590Z,52367.91
2023-03-04T22:18:32.678Z,52382.79
2023-03-04T22:21:07.709Z,52361.09
2023-03-04T22:23:41.060Z,52353.45
2023-03-04T22:26:15.566Z,52353.45
2023-03-04T22:28:48.364Z,52372.34
2023-03-04T22:31:26.550Z,52362.70
2023-03-04T22:34:01.416Z,52354.65
2023-03-04T22:36:34.565Z,52355.06
2023-03-04T22:39:08.493Z,52360.28
2023-03-04T22:41:43.878Z,52349.83
2023-03-04T22:44:16.929Z,52353.85
2023-03-04T22:46:49.660Z,52370.73
2023-03-04T22:49:22.605Z,52370.73
2023-03-04T22:51:57.200Z,52361.89
2023-03-04T22:54:31.201Z,52345.81
2023-03-04T22:57:04.316Z,52371.94
2023-03-04T22:59:37.378Z,52345.81
2023-03-04T23:02:10.122Z,52363.89
2023-03-04T23:04:43.133Z,52353.04
2023-03-04T23:07:15.894Z,52369.12
2023-03-04T23:09:48.654Z,52350.63
2023-03-04T23:12:21.545Z,52357.46
2023-03-04T23:14:54.384Z,52338.18
2023-03-04T23:17:27.677Z,52361.48
2023-03-04T23:20:00.566Z,52355.46
2023-03-04T23:22:39.781Z,52367.11
2023-03-04T23:25:13.605Z,52363.49
2023-03-04T23:27:46.445Z,52357.47
2023-03-04T23:30:19.792Z,52350.63
2023-03-04T23:32:52.668Z,52352.24
2023-03-04T23:35:25.339Z,52357.46
2023-03-04T23:37:59.060Z,52366.71
2023-03-04T23:40:33.596Z,52357.47
2023-03-04T23:43:06.303Z,52346.62
2023-03-04T23:45:40.162Z,52354.66
2023-03-04T23:48:14.320Z,52338.98
2023-03-04T23:50:52.513Z,52355.86
2023-03-04T23:53:25.227Z,52365.91
2023-03-04T23:55:58.435Z,52351.84
2023-03-04T23:58:31.293Z,52338.58
